EDT,Max TemperatureF,Mean TemperatureF,Min TemperatureF,Max Dew PointF,MeanDew PointF,Min DewpointF,Max Humidity, Mean Humidity, Min Humidity, Max Sea Level PressureIn, Mean Sea Level PressureIn, Min Sea Level PressureIn, Max VisibilityMiles, Mean VisibilityMiles, Min VisibilityMiles, Max Wind SpeedMPH, Mean Wind SpeedMPH, Max Gust SpeedMPH,PrecipitationIn, CloudCover, Events, WindDirDegrees
2011-10-1,68,62,55,56,53,51,97,81,55,29.74,29.68,29.60,10,9,5,13,6,,0.04,5,Rain,287
2011-10-2,54,52,48,52,47,44,94,86,74,29.93,29.80,29.69,10,10,3,9,4,,0.06,8,Rain,249
2011-10-3,57,49,43,48,44,42,97,84,60,30.07,30.00,29.92,10,10,9,6,1,,0.00,6,Rain,267
2011-10-4,66,54,43,53,48,42,97,80,52,30.07,30.05,30.03,10,8,4,13,5,21,0.00,3,,291
2011-10-5,73,60,48,52,49,44,100,70,41,30.25,30.12,30.06,10,10,7,14,6,21,0.01,0,,295
2011-10-6,68,56,43,47,41,36,97,65,32,30.38,30.33,30.27,10,10,10,10,3,,0.00,0,,344
2011-10-7,71,54,37,50,43,37,97,74,30,30.48,30.41,30.34,10,10,9,8,2,,0.00,0,,68
2011-10-8,73,57,42,53,47,41,97,78,37,30.52,30.47,30.43,10,10,10,5,0,,0.00,0,,255
2011-10-9,84,65,46,61,52,45,97,75,32,30.43,30.37,30.30,10,10,8,5,1,,0.01,0,,287
2011-10-10,81,64,48,65,56,49,100,79,40,30.29,30.21,30.14,10,8,6,6,1,,0.00,0,,26
2011-10-11,75,65,57,60,58,55,100,79,57,30.15,30.11,30.09,10,9,4,13,4,,0.00,2,,78
2011-10-12,64,62,60,63,61,57,100,93,84,30.10,29.97,29.83,10,6,2,16,9,24,0.20,8,Rain,64
2011-10-13,71,67,63,68,64,63,100,94,88,29.83,29.74,29.61,10,6,2,12,6,17,0.05,7,Rain,79
2011-10-14,73,66,57,68,61,42,100,84,53,29.64,29.52,29.40,10,9,2,16,7,30,0.11,5,Rain,227
2011-10-15,69,62,55,46,42,35,69,50,33,29.85,29.72,29.65,10,10,10,21,10,32,0.00,0,,245
2011-10-16,70,62,55,51,40,36,65,46,30,29.99,29.87,29.71,10,10,10,17,9,26,0.00,0,,246
2011-10-17,69,63,55,55,48,38,93,61,33,29.84,29.77,29.66,10,10,10,9,6,17,0.00,1,,270
2011-10-18,73,59,46,58,47,36,100,74,28,29.87,29.83,29.80,10,8,2,8,2,,0.00,2,,93
2011-10-19,71,66,60,70,64,59,100,96,93,29.80,29.54,29.31,10,3,1,17,8,26,1.00,8,Rain,81
2011-10-20,70,62,55,69,51,39,97,70,49,29.75,29.49,29.30,10,9,5,16,8,30,0.03,3,Rain,223
2011-10-21,61,50,41,45,41,38,96,68,46,30.07,29.94,29.77,10,10,10,17,8,25,0.00,2,,257
2011-10-22,62,49,37,46,41,36,97,73,44,30.12,30.09,30.06,10,10,6,9,4,,0.00,4,,293
2011-10-23,63,48,35,44,40,34,97,78,44,30.16,30.12,30.08,10,8,4,9,1,,0.00,0,,280
2011-10-24,64,52,39,51,45,38,100,83,54,30.13,30.06,29.98,10,8,4,9,1,,0.00,1,,181
2011-10-25,64,54,42,49,41,34,100,72,33,30.13,30.07,30.01,10,9,4,16,7,25,0.01,0,,285
2011-10-26,68,56,44,55,49,42,96,72,52,30.06,29.88,29.76,10,10,5,13,3,18,0.01,2,Rain,246
2011-10-27,66,54,44,60,52,36,100,91,73,29.95,29.70,29.55,10,7,1,22,4,34,0.19,7,Rain,315
2011-10-28,50,42,35,36,31,24,93,64,38,30.22,30.16,29.96,10,10,10,13,6,16,0.00,2,Rain,56
2011-10-29,43,38,33,40,37,34,100,91,76,30.18,29.93,29.73,10,6,2,25,14,37,1.05,8,Rain-Snow,15
2011-10-30,51,40,30,34,30,24,96,75,39,30.36,30.19,29.98,10,10,10,12,8,24,0.01,1,,308
2011-10-31,57,41,27,41,35,25,96,76,45,30.40,30.33,30.25,10,10,8,7,2,16,0.00,1,,102